sensor_id;sensor_type;location;lat;lon;timestamp;pressure;altitude;pressure_sealevel;temperature
68012;BMP180;54794;48.348;7.878;2024-01-27T00:00:26;100895.00;;;5.90
68012;BMP180;54794;48.348;7.878;2024-01-27T00:02:53;100894.00;;;6.00
68012;BMP180;54794;48.348;7.878;2024-01-27T00:05:20;100885.00;;;5.80
68012;BMP180;54794;48.348;7.878;2024-01-27T00:07:47;100896.00;;;5.70
68012;BMP180;54794;48.348;7.878;2024-01-27T00:10:14;100901.00;;;5.90
68012;BMP180;54794;48.348;7.878;2024-01-27T00:12:41;100902.00;;;6.00
68012;BMP180;54794;48.348;7.878;2024-01-27T00:15:08;100902.00;;;5.80
68012;BMP180;54794;48.348;7.878;2024-01-27T00:17:35;100923.00;;;5.70
68012;BMP180;54794;48.348;7.878;2024-01-27T00:20:03;100921.00;;;5.60
68012;BMP180;54794;48.348;7.878;2024-01-27T00:22:30;100914.00;;;5.60
68012;BMP180;54794;48.348;7.878;2024-01-27T00:24:57;100905.00;;;5.60
68012;BMP180;54794;48.348;7.878;2024-01-27T00:27:24;100908.00;;;5.60
68012;BMP180;54794;48.348;7.878;2024-01-27T00:29:51;100908.00;;;5.60
68012;BMP180;54794;48.348;7.878;2024-01-27T00:32:18;100911.00;;;5.60
68012;BMP180;54794;48.348;7.878;2024-01-27T00:34:45;100907.00;;;5.60
68012;BMP180;54794;48.348;7.878;2024-01-27T00:37:11;100926.00;;;5.60
68012;BMP180;54794;48.348;7.878;2024-01-27T00:39:38;100921.00;;;5.50
68012;BMP180;54794;48.348;7.878;2024-01-27T00:42:05;100908.00;;;5.80
68012;BMP180;54794;48.348;7.878;2024-01-27T00:44:32;100910.00;;;5.80
68012;BMP180;54794;48.348;7.878;2024-01-27T00:46:59;100901.00;;;5.50
68012;BMP180;54794;48.348;7.878;2024-01-27T00:49:26;100907.00;;;5.20
68012;BMP180;54794;48.348;7.878;2024-01-27T00:51:53;100904.00;;;5.10
68012;BMP180;54794;48.348;7.878;2024-01-27T00:54:20;100903.00;;;5.20
68012;BMP180;54794;48.348;7.878;2024-01-27T00:56:46;100902.00;;;5.40
68012;BMP180;54794;48.348;7.878;2024-01-27T00:59:13;100911.00;;;5.40
68012;BMP180;54794;48.348;7.878;2024-01-27T01:01:40;100909.00;;;5.20
68012;BMP180;54794;48.348;7.878;2024-01-27T01:04:07;100905.00;;;5.30
68012;BMP180;54794;48.348;7.878;2024-01-27T01:06:34;100908.00;;;5.60
68012;BMP180;54794;48.348;7.878;2024-01-27T01:09:01;100909.00;;;5.70
68012;BMP180;54794;48.348;7.878;2024-01-27T01:11:28;100914.00;;;5.40
68012;BMP180;54794;48.348;7.878;2024-01-27T01:13:55;100930.00;;;5.10
68012;BMP180;54794;48.348;7.878;2024-01-27T01:16:22;100935.00;;;4.80
68012;BMP180;54794;48.348;7.878;2024-01-27T01:18:49;100934.00;;;5.20
68012;BMP180;54794;48.348;7.878;2024-01-27T01:21:16;100930.00;;;5.30
68012;BMP180;54794;48.348;7.878;2024-01-27T01:23:42;100934.00;;;5.30
68012;BMP180;54794;48.348;7.878;2024-01-27T01:26:09;100923.00;;;5.50
68012;BMP180;54794;48.348;7.878;2024-01-27T01:28:36;100939.00;;;5.20
68012;BMP180;54794;48.348;7.878;2024-01-27T01:31:06;100932.00;;;4.90
68012;BMP180;54794;48.348;7.878;2024-01-27T01:33:34;100943.00;;;5.20
68012;BMP180;54794;48.348;7.878;2024-01-27T01:36:01;100938.00;;;5.60
68012;BMP180;54794;48.348;7.878;2024-01-27T01:38:28;100953.00;;;5.40
68012;BMP180;54794;48.348;7.878;2024-01-27T01:40:55;100961.00;;;5.20
68012;BMP180;54794;48.348;7.878;2024-01-27T01:43:21;100957.00;;;5.20
68012;BMP180;54794;48.348;7.878;2024-01-27T01:45:48;100954.00;;;5.20
68012;BMP180;54794;48.348;7.878;2024-01-27T01:48:17;100952.00;;;4.90
68012;BMP180;54794;48.348;7.878;2024-01-27T01:50:44;100956.00;;;4.60
68012;BMP180;54794;48.348;7.878;2024-01-27T01:53:13;100951.00;;;4.50
68012;BMP180;54794;48.348;7.878;2024-01-27T01:55:40;100955.00;;;5.00
68012;BMP180;54794;48.348;7.878;2024-01-27T01:58:07;100951.00;;;5.00
68012;BMP180;54794;48.348;7.878;2024-01-27T02:00:34;100967.00;;;5.10
68012;BMP180;54794;48.348;7.878;2024-01-27T02:03:02;100957.00;;;5.00
68012;BMP180;54794;48.348;7.878;2024-01-27T02:05:29;100967.00;;;5.20
68012;BMP180;54794;48.348;7.878;2024-01-27T02:07:56;100956.00;;;5.30
68012;BMP180;54794;48.348;7.878;2024-01-27T02:10:23;100965.00;;;4.70
68012;BMP180;54794;48.348;7.878;2024-01-27T02:12:50;100971.00;;;4.40
68012;BMP180;54794;48.348;7.878;2024-01-27T02:15:17;100972.00;;;4.40
68012;BMP180;54794;48.348;7.878;2024-01-27T02:17:43;100970.00;;;4.80
68012;BMP180;54794;48.348;7.878;2024-01-27T02:20:10;100967.00;;;5.00
68012;BMP180;54794;48.348;7.878;2024-01-27T02:22:37;100970.00;;;4.90
68012;BMP180;54794;48.348;7.878;2024-01-27T02:25:04;100960.00;;;4.70
68012;BMP180;54794;48.348;7.878;2024-01-27T02:27:32;100964.00;;;4.80
68012;BMP180;54794;48.348;7.878;2024-01-27T02:29:59;100979.00;;;4.70
68012;BMP180;54794;48.348;7.878;2024-01-27T02:32:25;100971.00;;;4.70
68012;BMP180;54794;48.348;7.878;2024-01-27T02:34:52;100978.00;;;4.50
68012;BMP180;54794;48.348;7.878;2024-01-27T02:37:19;100978.00;;;4.50
68012;BMP180;54794;48.348;7.878;2024-01-27T02:39:46;100985.00;;;4.50
68012;BMP180;54794;48.348;7.878;2024-01-27T02:42:13;100977.00;;;4.50
68012;BMP180;54794;48.348;7.878;2024-01-27T02:44:40;100977.00;;;4.30
68012;BMP180;54794;48.348;7.878;2024-01-27T02:47:06;100963.00;;;4.50
68012;BMP180;54794;48.348;7.878;2024-01-27T02:49:33;100975.00;;;4.00
68012;BMP180;54794;48.348;7.878;2024-01-27T02:52:00;100981.00;;;3.80
68012;BMP180;54794;48.348;7.878;2024-01-27T02:54:27;100980.00;;;4.00
68012;BMP180;54794;48.348;7.878;2024-01-27T02:56:54;100985.00;;;4.30
68012;BMP180;54794;48.348;7.878;2024-01-27T02:59:21;100985.00;;;4.60
68012;BMP180;54794;48.348;7.878;2024-01-27T03:01:48;100989.00;;;4.80
68012;BMP180;54794;48.348;7.878;2024-01-27T03:04:14;100990.00;;;4.20
68012;BMP180;54794;48.348;7.878;2024-01-27T03:06:41;100994.00;;;4.50
68012;BMP180;54794;48.348;7.878;2024-01-27T03:09:08;100996.00;;;4.20
68012;BMP180;54794;48.348;7.878;2024-01-27T03:11:37;100995.00;;;4.70
68012;BMP180;54794;48.348;7.878;2024-01-27T03:14:04;100989.00;;;4.30
68012;BMP180;54794;48.348;7.878;2024-01-27T03:16:31;100985.00;;;4.50
68012;BMP180;54794;48.348;7.878;2024-01-27T03:18:59;100992.00;;;4.50
68012;BMP180;54794;48.348;7.878;2024-01-27T03:21:26;101004.00;;;4.00
68012;BMP180;54794;48.348;7.878;2024-01-27T03:23:53;101004.00;;;3.90
68012;BMP180;54794;48.348;7.878;2024-01-27T03:26:20;100997.00;;;4.10
68012;BMP180;54794;48.348;7.878;2024-01-27T03:28:47;100994.00;;;4.50
68012;BMP180;54794;48.348;7.878;2024-01-27T03:31:14;100996.00;;;4.50
68012;BMP180;54794;48.348;7.878;2024-01-27T03:33:41;101001.00;;;4.40
68012;BMP180;54794;48.348;7.878;2024-01-27T03:36:14;100997.00;;;4.30
68012;BMP180;54794;48.348;7.878;2024-01-27T03:38:41;101004.00;;;4.30
68012;BMP180;54794;48.348;7.878;2024-01-27T03:41:08;101004.00;;;4.40
68012;BMP180;54794;48.348;7.878;2024-01-27T03:43:35;101000.00;;;4.40
68012;BMP180;54794;48.348;7.878;2024-01-27T03:46:02;101015.00;;;4.30
68012;BMP180;54794;48.348;7.878;2024-01-27T03:48:29;101021.00;;;4.20
68012;BMP180;54794;48.348;7.878;2024-01-27T03:50:57;101021.00;;;4.40
68012;BMP180;54794;48.348;7.878;2024-01-27T03:53:24;101018.00;;;4.20
68012;BMP180;54794;48.348;7.878;2024-01-27T03:55:50;101020.00;;;4.00
68012;BMP180;54794;48.348;7.878;2024-01-27T03:58:17;101018.00;;;4.10
68012;BMP180;54794;48.348;7.878;2024-01-27T04:00:44;101022.00;;;4.10
68012;BMP180;54794;48.348;7.878;2024-01-27T04:03:12;101017.00;;;4.10
68012;BMP180;54794;48.348;7.878;2024-01-27T04:05:39;101020.00;;;4.00
68012;BMP180;54794;48.348;7.878;2024-01-27T04:08:06;101023.00;;;4.10
68012;BMP180;54794;48.348;7.878;2024-01-27T04:10:33;101025.00;;;4.10
68012;BMP180;54794;48.348;7.878;2024-01-27T04:13:01;101033.00;;;4.10
68012;BMP180;54794;48.348;7.878;2024-01-27T04:15:28;101020.00;;;4.30
68012;BMP180;54794;48.348;7.878;2024-01-27T04:17:55;101025.00;;;4.30
68012;BMP180;54794;48.348;7.878;2024-01-27T04:20:22;101027.00;;;4.20
68012;BMP180;54794;48.348;7.878;2024-01-27T04:22:49;101031.00;;;4.10
68012;BMP180;54794;48.348;7.878;2024-01-27T04:25:16;101023.00;;;4.10
68012;BMP180;54794;48.348;7.878;2024-01-27T04:27:43;101035.00;;;4.20
68012;BMP180;54794;48.348;7.878;2024-01-27T04:30:11;101040.00;;;4.30
68012;BMP180;54794;48.348;7.878;2024-01-27T04:32:39;101036.00;;;4.00
68012;BMP180;54794;48.348;7.878;2024-01-27T04:35:10;101040.00;;;4.20
68012;BMP180;54794;48.348;7.878;2024-01-27T04:37:38;101043.00;;;4.20
68012;BMP180;54794;48.348;7.878;2024-01-27T04:40:06;101041.00;;;4.10
68012;BMP180;54794;48.348;7.878;2024-01-27T04:42:34;101056.00;;;4.10
68012;BMP180;54794;48.348;7.878;2024-01-27T04:45:01;101046.00;;;4.10
68012;BMP180;54794;48.348;7.878;2024-01-27T04:47:28;101039.00;;;4.10
68012;BMP180;54794;48.348;7.878;2024-01-27T04:49:55;101044.00;;;4.10
68012;BMP180;54794;48.348;7.878;2024-01-27T04:52:24;101034.00;;;4.20
68012;BMP180;54794;48.348;7.878;2024-01-27T04:54:50;101046.00;;;4.10
68012;BMP180;54794;48.348;7.878;2024-01-27T04:57:17;101034.00;;;4.00
68012;BMP180;54794;48.348;7.878;2024-01-27T04:59:44;101039.00;;;4.10
68012;BMP180;54794;48.348;7.878;2024-01-27T05:02:11;101038.00;;;4.20
68012;BMP180;54794;48.348;7.878;2024-01-27T05:04:38;101043.00;;;4.20
68012;BMP180;54794;48.348;7.878;2024-01-27T05:07:06;101043.00;;;4.20
68012;BMP180;54794;48.348;7.878;2024-01-27T05:09:34;101036.00;;;4.20
68012;BMP180;54794;48.348;7.878;2024-01-27T05:12:02;101033.00;;;4.10
68012;BMP180;54794;48.348;7.878;2024-01-27T05:14:29;101037.00;;;4.10
68012;BMP180;54794;48.348;7.878;2024-01-27T05:16:56;101037.00;;;4.20
68012;BMP180;54794;48.348;7.878;2024-01-27T05:19:23;101037.00;;;4.30
68012;BMP180;54794;48.348;7.878;2024-01-27T05:21:50;101035.00;;;4.20
68012;BMP180;54794;48.348;7.878;2024-01-27T05:24:16;101020.00;;;4.10
68012;BMP180;54794;48.348;7.878;2024-01-27T05:26:43;101020.00;;;4.10
68012;BMP180;54794;48.348;7.878;2024-01-27T05:29:10;101031.00;;;4.20
68012;BMP180;54794;48.348;7.878;2024-01-27T05:31:37;101039.00;;;4.10
68012;BMP180;54794;48.348;7.878;2024-01-27T05:34:04;101032.00;;;4.20
68012;BMP180;54794;48.348;7.878;2024-01-27T05:36:31;101025.00;;;4.00
68012;BMP180;54794;48.348;7.878;2024-01-27T05:38:58;101036.00;;;4.00
68012;BMP180;54794;48.348;7.878;2024-01-27T05:41:26;101031.00;;;4.10
68012;BMP180;54794;48.348;7.878;2024-01-27T05:43:55;101027.00;;;4.10
68012;BMP180;54794;48.348;7.878;2024-01-27T05:46:27;101037.00;;;4.00
68012;BMP180;54794;48.348;7.878;2024-01-27T05:48:54;101047.00;;;4.20
68012;BMP180;54794;48.348;7.878;2024-01-27T05:51:22;101044.00;;;4.00
68012;BMP180;54794;48.348;7.878;2024-01-27T05:53:50;101047.00;;;4.10
68012;BMP180;54794;48.348;7.878;2024-01-27T05:56:17;101055.00;;;4.00
68012;BMP180;54794;48.348;7.878;2024-01-27T05:58:49;101065.00;;;3.90
68012;BMP180;54794;48.348;7.878;2024-01-27T06:01:18;101067.00;;;4.10
68012;BMP180;54794;48.348;7.878;2024-01-27T06:03:46;101065.00;;;3.90
68012;BMP180;54794;48.348;7.878;2024-01-27T06:06:13;101051.00;;;4.00
68012;BMP180;54794;48.348;7.878;2024-01-27T06:08:41;101053.00;;;4.10
68012;BMP180;54794;48.348;7.878;2024-01-27T06:11:08;101040.00;;;4.10
68012;BMP180;54794;48.348;7.878;2024-01-27T06:13:36;101041.00;;;4.20
68012;BMP180;54794;48.348;7.878;2024-01-27T06:16:08;101050.00;;;4.20
68012;BMP180;54794;48.348;7.878;2024-01-27T06:18:38;101047.00;;;4.20
68012;BMP180;54794;48.348;7.878;2024-01-27T06:21:06;101052.00;;;4.30
68012;BMP180;54794;48.348;7.878;2024-01-27T06:23:33;101051.00;;;4.20
68012;BMP180;54794;48.348;7.878;2024-01-27T06:26:07;101060.00;;;4.30
68012;BMP180;54794;48.348;7.878;2024-01-27T06:28:35;101054.00;;;4.10
68012;BMP180;54794;48.348;7.878;2024-01-27T06:31:03;101053.00;;;4.00
68012;BMP180;54794;48.348;7.878;2024-01-27T06:33:31;101046.00;;;4.20
68012;BMP180;54794;48.348;7.878;2024-01-27T06:35:58;101048.00;;;4.20
68012;BMP180;54794;48.348;7.878;2024-01-27T06:38:27;101053.00;;;4.10
68012;BMP180;54794;48.348;7.878;2024-01-27T06:40:53;101053.00;;;4.10
68012;BMP180;54794;48.348;7.878;2024-01-27T06:43:20;101054.00;;;4.00
68012;BMP180;54794;48.348;7.878;2024-01-27T06:45:47;101046.00;;;4.10
68012;BMP180;54794;48.348;7.878;2024-01-27T06:48:14;101048.00;;;4.10
68012;BMP180;54794;48.348;7.878;2024-01-27T06:50:41;101057.00;;;4.10
68012;BMP180;54794;48.348;7.878;2024-01-27T06:53:08;101047.00;;;4.00
68012;BMP180;54794;48.348;7.878;2024-01-27T06:55:37;101046.00;;;4.10
68012;BMP180;54794;48.348;7.878;2024-01-27T06:58:08;101033.00;;;4.10
68012;BMP180;54794;48.348;7.878;2024-01-27T07:00:34;101033.00;;;4.20
68012;BMP180;54794;48.348;7.878;2024-01-27T07:03:01;101034.00;;;4.00
68012;BMP180;54794;48.348;7.878;2024-01-27T07:05:29;101022.00;;;4.00
68012;BMP180;54794;48.348;7.878;2024-01-27T07:07:56;101016.00;;;4.00
68012;BMP180;54794;48.348;7.878;2024-01-27T07:10:23;101027.00;;;3.90
68012;BMP180;54794;48.348;7.878;2024-01-27T07:12:50;101031.00;;;3.80
68012;BMP180;54794;48.348;7.878;2024-01-27T07:15:16;101028.00;;;4.00
68012;BMP180;54794;48.348;7.878;2024-01-27T07:17:44;101034.00;;;4.30
68012;BMP180;54794;48.348;7.878;2024-01-27T07:20:11;101036.00;;;4.00
68012;BMP180;54794;48.348;7.878;2024-01-27T07:22:38;101043.00;;;4.10
68012;BMP180;54794;48.348;7.878;2024-01-27T07:25:05;101044.00;;;4.00
68012;BMP180;54794;48.348;7.878;2024-01-27T07:27:33;101053.00;;;4.10
68012;BMP180;54794;48.348;7.878;2024-01-27T07:30:00;101057.00;;;4.00
68012;BMP180;54794;48.348;7.878;2024-01-27T07:32:28;101059.00;;;4.10
68012;BMP180;54794;48.348;7.878;2024-01-27T07:34:55;101057.00;;;4.00
68012;BMP180;54794;48.348;7.878;2024-01-27T07:37:22;101056.00;;;4.00
68012;BMP180;54794;48.348;7.878;2024-01-27T07:39:48;101054.00;;;4.00
68012;BMP180;54794;48.348;7.878;2024-01-27T07:42:15;101056.00;;;4.10
68012;BMP180;54794;48.348;7.878;2024-01-27T07:44:42;101050.00;;;4.20
68012;BMP180;54794;48.348;7.878;2024-01-27T07:47:09;101052.00;;;4.00
68012;BMP180;54794;48.348;7.878;2024-01-27T07:49:36;101057.00;;;4.00
68012;BMP180;54794;48.348;7.878;2024-01-27T07:52:05;101054.00;;;4.00
68012;BMP180;54794;48.348;7.878;2024-01-27T07:54:32;101046.00;;;4.10
68012;BMP180;54794;48.348;7.878;2024-01-27T07:57:00;101036.00;;;4.10
68012;BMP180;54794;48.348;7.878;2024-01-27T07:59:26;101023.00;;;4.20
68012;BMP180;54794;48.348;7.878;2024-01-27T08:01:53;101037.00;;;4.20
68012;BMP180;54794;48.348;7.878;2024-01-27T08:04:20;101047.00;;;4.20
68012;BMP180;54794;48.348;7.878;2024-01-27T08:06:50;101047.00;;;4.20
68012;BMP180;54794;48.348;7.878;2024-01-27T08:09:18;101032.00;;;4.20
68012;BMP180;54794;48.348;7.878;2024-01-27T08:11:45;101041.00;;;4.10
68012;BMP180;54794;48.348;7.878;2024-01-27T08:14:12;101041.00;;;4.00
68012;BMP180;54794;48.348;7.878;2024-01-27T08:16:39;101056.00;;;4.20
68012;BMP180;54794;48.348;7.878;2024-01-27T08:19:05;101065.00;;;4.00
68012;BMP180;54794;48.348;7.878;2024-01-27T08:21:32;101056.00;;;3.80
68012;BMP180;54794;48.348;7.878;2024-01-27T08:23:59;101057.00;;;3.80
68012;BMP180;54794;48.348;7.878;2024-01-27T08:26:26;101057.00;;;4.00
68012;BMP180;54794;48.348;7.878;2024-01-27T08:28:53;101061.00;;;4.20
68012;BMP180;54794;48.348;7.878;2024-01-27T08:31:22;101060.00;;;4.30
68012;BMP180;54794;48.348;7.878;2024-01-27T08:33:49;101062.00;;;4.30
68012;BMP180;54794;48.348;7.878;2024-01-27T08:36:17;101059.00;;;4.30
68012;BMP180;54794;48.348;7.878;2024-01-27T08:38:44;101065.00;;;4.10
68012;BMP180;54794;48.348;7.878;2024-01-27T08:41:12;101069.00;;;4.30
68012;BMP180;54794;48.348;7.878;2024-01-27T08:43:39;101067.00;;;4.20
68012;BMP180;54794;48.348;7.878;2024-01-27T08:46:05;101071.00;;;4.30
68012;BMP180;54794;48.348;7.878;2024-01-27T08:48:34;101070.00;;;4.40
68012;BMP180;54794;48.348;7.878;2024-01-27T08:51:01;101060.00;;;4.40
68012;BMP180;54794;48.348;7.878;2024-01-27T08:53:28;101062.00;;;4.40
68012;BMP180;54794;48.348;7.878;2024-01-27T08:55:55;101067.00;;;4.50
68012;BMP180;54794;48.348;7.878;2024-01-27T08:58:22;101066.00;;;4.60
68012;BMP180;54794;48.348;7.878;2024-01-27T09:00:49;101070.00;;;4.80
68012;BMP180;54794;48.348;7.878;2024-01-27T09:03:16;101080.00;;;4.70
68012;BMP180;54794;48.348;7.878;2024-01-27T09:05:45;101069.00;;;4.90
68012;BMP180;54794;48.348;7.878;2024-01-27T09:08:18;101066.00;;;5.00
68012;BMP180;54794;48.348;7.878;2024-01-27T09:10:45;101059.00;;;5.00
68012;BMP180;54794;48.348;7.878;2024-01-27T09:13:15;101054.00;;;4.90
68012;BMP180;54794;48.348;7.878;2024-01-27T09:16:01;101045.00;;;5.00
68012;BMP180;54794;48.348;7.878;2024-01-27T09:18:29;101049.00;;;5.20
68012;BMP180;54794;48.348;7.878;2024-01-27T09:21:13;101037.00;;;5.20
68012;BMP180;54794;48.348;7.878;2024-01-27T09:23:47;101058.00;;;5.20
68012;BMP180;54794;48.348;7.878;2024-01-27T09:26:14;101045.00;;;5.20
68012;BMP180;54794;48.348;7.878;2024-01-27T09:29:50;101041.00;;;5.40
68012;BMP180;54794;48.348;7.878;2024-01-27T09:32:18;101040.00;;;5.40
68012;BMP180;54794;48.348;7.878;2024-01-27T09:34:44;101030.00;;;5.50
68012;BMP180;54794;48.348;7.878;2024-01-27T09:37:11;101032.00;;;5.50
68012;BMP180;54794;48.348;7.878;2024-01-27T09:39:38;101037.00;;;5.60
68012;BMP180;54794;48.348;7.878;2024-01-27T09:42:07;101023.00;;;5.50
68012;BMP180;54794;48.348;7.878;2024-01-27T09:44:36;101033.00;;;5.60
68012;BMP180;54794;48.348;7.878;2024-01-27T09:47:03;101032.00;;;5.60
68012;BMP180;54794;48.348;7.878;2024-01-27T09:49:31;101031.00;;;5.60
68012;BMP180;54794;48.348;7.878;2024-01-27T09:51:59;101021.00;;;5.80
68012;BMP180;54794;48.348;7.878;2024-01-27T09:54:26;101026.00;;;5.80
68012;BMP180;54794;48.348;7.878;2024-01-27T09:56:55;101025.00;;;5.90
68012;BMP180;54794;48.348;7.878;2024-01-27T09:59:23;101027.00;;;6.10
68012;BMP180;54794;48.348;7.878;2024-01-27T10:01:52;101019.00;;;6.20
68012;BMP180;54794;48.348;7.878;2024-01-27T10:04:19;101021.00;;;6.20
68012;BMP180;54794;48.348;7.878;2024-01-27T10:06:49;101028.00;;;6.00
68012;BMP180;54794;48.348;7.878;2024-01-27T10:09:18;101024.00;;;6.10
68012;BMP180;54794;48.348;7.878;2024-01-27T10:11:48;101013.00;;;6.30
68012;BMP180;54794;48.348;7.878;2024-01-27T10:14:15;101017.00;;;6.50
68012;BMP180;54794;48.348;7.878;2024-01-27T10:16:44;101023.00;;;6.30
68012;BMP180;54794;48.348;7.878;2024-01-27T10:19:17;101026.00;;;5.90
68012;BMP180;54794;48.348;7.878;2024-01-27T10:21:45;101013.00;;;6.10
68012;BMP180;54794;48.348;7.878;2024-01-27T10:24:14;101008.00;;;6.10
68012;BMP180;54794;48.348;7.878;2024-01-27T10:26:41;101007.00;;;6.20
68012;BMP180;54794;48.348;7.878;2024-01-27T10:29:08;101019.00;;;6.10
68012;BMP180;54794;48.348;7.878;2024-01-27T10:31:36;101004.00;;;6.30
68012;BMP180;54794;48.348;7.878;2024-01-27T10:34:04;101002.00;;;6.40
68012;BMP180;54794;48.348;7.878;2024-01-27T10:36:43;101005.00;;;6.50
68012;BMP180;54794;48.348;7.878;2024-01-27T10:39:23;101003.00;;;6.40
68012;BMP180;54794;48.348;7.878;2024-01-27T10:41:51;100993.00;;;6.30
68012;BMP180;54794;48.348;7.878;2024-01-27T10:44:19;100996.00;;;6.30
68012;BMP180;54794;48.348;7.878;2024-01-27T10:46:49;100991.00;;;6.20
68012;BMP180;54794;48.348;7.878;2024-01-27T10:49:18;100993.00;;;6.10
68012;BMP180;54794;48.348;7.878;2024-01-27T10:51:56;100995.00;;;6.10
68012;BMP180;54794;48.348;7.878;2024-01-27T10:54:27;100995.00;;;6.20
68012;BMP180;54794;48.348;7.878;2024-01-27T10:56:58;100996.00;;;6.10
68012;BMP180;54794;48.348;7.878;2024-01-27T10:59:27;100996.00;;;6.10
68012;BMP180;54794;48.348;7.878;2024-01-27T11:01:56;100986.00;;;6.30
68012;BMP180;54794;48.348;7.878;2024-01-27T11:04:30;100975.00;;;6.30
68012;BMP180;54794;48.348;7.878;2024-01-27T11:07:01;100978.00;;;6.40
68012;BMP180;54794;48.348;7.878;2024-01-27T11:09:29;100976.00;;;6.60
68012;BMP180;54794;48.348;7.878;2024-01-27T11:11:58;100971.00;;;6.50
68012;BMP180;54794;48.348;7.878;2024-01-27T11:14:25;100971.00;;;6.50
68012;BMP180;54794;48.348;7.878;2024-01-27T11:16:56;100973.00;;;6.40
68012;BMP180;54794;48.348;7.878;2024-01-27T11:19:23;100971.00;;;6.60
68012;BMP180;54794;48.348;7.878;2024-01-27T11:22:04;100976.00;;;6.50
68012;BMP180;54794;48.348;7.878;2024-01-27T11:24:31;100966.00;;;6.60
68012;BMP180;54794;48.348;7.878;2024-01-27T11:27:05;100956.00;;;6.40
68012;BMP180;54794;48.348;7.878;2024-01-27T11:29:33;100953.00;;;6.60
68012;BMP180;54794;48.348;7.878;2024-01-27T11:32:02;100954.00;;;6.70
68012;BMP180;54794;48.348;7.878;2024-01-27T11:34:47;100957.00;;;6.50
68012;BMP180;54794;48.348;7.878;2024-01-27T11:37:16;100953.00;;;6.50
68012;BMP180;54794;48.348;7.878;2024-01-27T11:39:43;100948.00;;;6.50
68012;BMP180;54794;48.348;7.878;2024-01-27T11:42:12;100946.00;;;6.70
68012;BMP180;54794;48.348;7.878;2024-01-27T11:44:41;100948.00;;;6.80
68012;BMP180;54794;48.348;7.878;2024-01-27T11:47:17;100956.00;;;6.80
68012;BMP180;54794;48.348;7.878;2024-01-27T11:49:52;100950.00;;;6.80
68012;BMP180;54794;48.348;7.878;2024-01-27T11:52:21;100941.00;;;6.90
68012;BMP180;54794;48.348;7.878;2024-01-27T11:54:59;100936.00;;;6.90
68012;BMP180;54794;48.348;7.878;2024-01-27T11:57:26;100936.00;;;6.90
68012;BMP180;54794;48.348;7.878;2024-01-27T11:59:54;100929.00;;;7.10
68012;BMP180;54794;48.348;7.878;2024-01-27T12:02:22;100926.00;;;7.10
68012;BMP180;54794;48.348;7.878;2024-01-27T12:04:49;100934.00;;;7.10
68012;BMP180;54794;48.348;7.878;2024-01-27T12:07:17;100922.00;;;7.20
68012;BMP180;54794;48.348;7.878;2024-01-27T12:09:51;100915.00;;;7.20
68012;BMP180;54794;48.348;7.878;2024-01-27T12:12:18;100915.00;;;7.40
68012;BMP180;54794;48.348;7.878;2024-01-27T12:14:49;100911.00;;;7.50
68012;BMP180;54794;48.348;7.878;2024-01-27T12:17:18;100923.00;;;7.60
68012;BMP180;54794;48.348;7.878;2024-01-27T12:19:50;100914.00;;;7.60
68012;BMP180;54794;48.348;7.878;2024-01-27T12:25:34;100911.00;;;7.70
68012;BMP180;54794;48.348;7.878;2024-01-27T12:28:17;100899.00;;;7.80
68012;BMP180;54794;48.348;7.878;2024-01-27T12:38:18;100890.00;;;7.90
68012;BMP180;54794;48.348;7.878;2024-01-27T12:40:50;100887.00;;;8.10
68012;BMP180;54794;48.348;7.878;2024-01-27T12:43:17;100876.00;;;8.00
68012;BMP180;54794;48.348;7.878;2024-01-27T12:45:44;100872.00;;;7.90
68012;BMP180;54794;48.348;7.878;2024-01-27T12:48:11;100880.00;;;8.00
68012;BMP180;54794;48.348;7.878;2024-01-27T12:50:38;100876.00;;;8.10
68012;BMP180;54794;48.348;7.878;2024-01-27T12:53:05;100867.00;;;8.10
68012;BMP180;54794;48.348;7.878;2024-01-27T12:55:31;100868.00;;;8.20
68012;BMP180;54794;48.348;7.878;2024-01-27T12:57:58;100858.00;;;8.30
68012;BMP180;54794;48.348;7.878;2024-01-27T13:00:25;100851.00;;;8.30
68012;BMP180;54794;48.348;7.878;2024-01-27T13:02:52;100847.00;;;8.30
68012;BMP180;54794;48.348;7.878;2024-01-27T13:05:19;100849.00;;;8.50
68012;BMP180;54794;48.348;7.878;2024-01-27T13:07:47;100831.00;;;8.70
68012;BMP180;54794;48.348;7.878;2024-01-27T13:10:15;100828.00;;;8.60
68012;BMP180;54794;48.348;7.878;2024-01-27T13:12:41;100830.00;;;8.60
68012;BMP180;54794;48.348;7.878;2024-01-27T13:15:08;100835.00;;;8.80
68012;BMP180;54794;48.348;7.878;2024-01-27T13:17:35;100833.00;;;8.80
68012;BMP180;54794;48.348;7.878;2024-01-27T13:20:05;100826.00;;;8.80
68012;BMP180;54794;48.348;7.878;2024-01-27T13:22:42;100821.00;;;8.90
68012;BMP180;54794;48.348;7.878;2024-01-27T13:25:38;100832.00;;;9.00
68012;BMP180;54794;48.348;7.878;2024-01-27T13:28:05;100808.00;;;8.90
68012;BMP180;54794;48.348;7.878;2024-01-27T13:30:34;100800.00;;;9.10
68012;BMP180;54794;48.348;7.878;2024-01-27T13:33:01;100801.00;;;9.10
68012;BMP180;54794;48.348;7.878;2024-01-27T13:35:32;100804.00;;;9.20
68012;BMP180;54794;48.348;7.878;2024-01-27T13:37:59;100802.00;;;9.30
68012;BMP180;54794;48.348;7.878;2024-01-27T13:40:26;100806.00;;;9.30
68012;BMP180;54794;48.348;7.878;2024-01-27T13:42:53;100806.00;;;9.30
68012;BMP180;54794;48.348;7.878;2024-01-27T13:45:20;100797.00;;;9.10
68012;BMP180;54794;48.348;7.878;2024-01-27T13:47:47;100796.00;;;9.30
68012;BMP180;54794;48.348;7.878;2024-01-27T13:50:14;100799.00;;;9.20
68012;BMP180;54794;48.348;7.878;2024-01-27T13:52:42;100790.00;;;9.40
68012;BMP180;54794;48.348;7.878;2024-01-27T13:55:11;100789.00;;;9.20
68012;BMP180;54794;48.348;7.878;2024-01-27T13:57:39;100785.00;;;9.10
68012;BMP180;54794;48.348;7.878;2024-01-27T14:00:07;100792.00;;;9.30
68012;BMP180;54794;48.348;7.878;2024-01-27T14:02:35;100783.00;;;9.20
68012;BMP180;54794;48.348;7.878;2024-01-27T14:05:05;100792.00;;;9.20
68012;BMP180;54794;48.348;7.878;2024-01-27T14:07:32;100795.00;;;9.40
68012;BMP180;54794;48.348;7.878;2024-01-27T14:10:00;100784.00;;;9.30
68012;BMP180;54794;48.348;7.878;2024-01-27T14:12:27;100787.00;;;9.50
68012;BMP180;54794;48.348;7.878;2024-01-27T14:15:03;100791.00;;;9.30
68012;BMP180;54794;48.348;7.878;2024-01-27T14:17:34;100794.00;;;9.40
68012;BMP180;54794;48.348;7.878;2024-01-27T14:20:05;100785.00;;;9.50
68012;BMP180;54794;48.348;7.878;2024-01-27T14:22:32;100789.00;;;9.40
68012;BMP180;54794;48.348;7.878;2024-01-27T14:24:59;100793.00;;;9.60